createdAt,value
2022-07-25T00:02:04.602Z,84.88
2022-07-25T00:04:34.375Z,85.55
2022-07-25T00:07:04.851Z,86.10
2022-07-25T00:09:32.170Z,86.18
2022-07-25T00:11:59.299Z,85.80
2022-07-25T00:14:26.722Z,82.85
2022-07-25T00:16:53.720Z,80.73
2022-07-25T00:19:22.943Z,81.07
2022-07-25T00:21:50.101Z,81.35
2022-07-25T00:24:20.214Z,81.17
2022-07-25T00:26:47.108Z,83.28
2022-07-25T00:29:14.184Z,83.87
2022-07-25T00:31:43.983Z,83.53
2022-07-25T00:34:11.252Z,82.97
2022-07-25T00:36:38.518Z,83.52
2022-07-25T00:39:05.970Z,84.25
2022-07-25T00:41:37.029Z,83.74
2022-07-25T00:44:05.399Z,84.79
2022-07-25T00:46:33.097Z,85.02
2022-07-25T00:49:00.893Z,85.32
2022-07-25T00:51:28.567Z,86.63
2022-07-25T00:53:57.519Z,86.66
2022-07-25T00:56:25.208Z,86.04
2022-07-25T00:58:54.636Z,86.57
2022-07-25T01:01:22.022Z,87.06
2022-07-25T01:03:50.785Z,85.89
2022-07-25T01:06:18.555Z,85.91
2022-07-25T01:08:47.160Z,86.63
2022-07-25T01:11:14.047Z,84.11
2022-07-25T01:13:41.646Z,85.29
2022-07-25T01:16:12.699Z,87.49
2022-07-25T01:18:40.272Z,88.04
2022-07-25T01:21:09.305Z,87.36
2022-07-25T01:23:37.962Z,81.66
2022-07-25T01:26:05.482Z,80.88
2022-07-25T01:28:35.311Z,80.24
2022-07-25T01:31:04.811Z,79.65
2022-07-25T01:33:31.755Z,79.70
2022-07-25T01:35:59.309Z,79.16
2022-07-25T01:38:27.701Z,79.28
2022-07-25T01:40:54.538Z,80.05
2022-07-25T01:43:21.531Z,79.53
2022-07-25T01:45:48.770Z,80.53
2022-07-25T01:48:15.751Z,83.01
2022-07-25T01:50:45.823Z,82.67
2022-07-25T01:53:12.703Z,80.98
2022-07-25T01:55:41.938Z,79.05
2022-07-25T01:58:09.978Z,80.18
2022-07-25T02:00:37.565Z,84.91
2022-07-25T02:03:06.700Z,85.39
2022-07-25T02:05:33.548Z,86.63
2022-07-25T02:08:00.898Z,86.18
2022-07-25T02:10:28.294Z,86.55
2022-07-25T02:12:56.629Z,86.32
2022-07-25T02:15:23.650Z,85.14
2022-07-25T02:17:50.786Z,86.54
2022-07-25T02:20:17.858Z,87.32
2022-07-25T02:22:44.821Z,88.52
2022-07-25T02:25:11.792Z,89.52
2022-07-25T02:27:38.656Z,87.76
2022-07-25T02:30:08.689Z,87.01
2022-07-25T02:32:36.400Z,86.88
2022-07-25T02:35:04.018Z,86.31
2022-07-25T02:37:40.410Z,86.87
2022-07-25T02:40:09.000Z,87.51
2022-07-25T02:42:38.919Z,87.93
2022-07-25T02:45:09.098Z,87.18
2022-07-25T02:47:36.080Z,86.65
2022-07-25T02:50:06.923Z,86.84
2022-07-25T02:52:36.434Z,86.57
2022-07-25T02:55:09.247Z,86.85
2022-07-25T02:57:37.171Z,86.75
2022-07-25T03:00:08.320Z,87.32
2022-07-25T03:02:35.310Z,88.85
2022-07-25T03:05:02.399Z,88.66
2022-07-25T03:07:29.783Z,88.33
2022-07-25T03:09:56.657Z,88.48
2022-07-25T03:12:23.537Z,88.48
2022-07-25T03:15:20.249Z,88.20
2022-07-25T03:17:47.663Z,88.85
2022-07-25T03:20:14.616Z,89.32
2022-07-25T03:22:42.022Z,88.77
2022-07-25T03:25:15.790Z,88.59
2022-07-25T03:27:57.299Z,88.34
2022-07-25T03:30:25.640Z,88.10
2022-07-25T03:32:52.592Z,88.06
2022-07-25T03:35:19.505Z,88.09
2022-07-25T03:37:52.573Z,88.44
2022-07-25T03:40:20.155Z,89.72
2022-07-25T03:42:47.081Z,91.07
2022-07-25T03:45:17.226Z,91.48
2022-07-25T03:47:51.759Z,91.19
2022-07-25T03:50:19.069Z,90.28
2022-07-25T03:52:46.515Z,91.48
2022-07-25T03:55:13.572Z,93.52
2022-07-25T03:57:40.527Z,96.49
2022-07-25T04:00:10.417Z,95.96
2022-07-25T04:02:38.108Z,96.57
2022-07-25T04:05:09.056Z,96.06
2022-07-25T04:08:05.069Z,94.92
2022-07-25T04:10:48.092Z,95.31
2022-07-25T04:13:15.289Z,95.44
2022-07-25T04:15:42.128Z,94.34
2022-07-25T04:18:09.115Z,93.14
2022-07-25T04:20:41.448Z,91.06
2022-07-25T04:23:08.944Z,89.63
2022-07-25T04:25:35.869Z,88.44
2022-07-25T04:28:03.788Z,87.27
2022-07-25T04:30:33.061Z,85.84
2022-07-25T04:33:01.505Z,83.77
2022-07-25T04:35:28.723Z,80.93
2022-07-25T04:37:57.496Z,78.57
2022-07-25T04:40:24.767Z,75.52
2022-07-25T04:42:52.286Z,71.06
2022-07-25T04:45:19.508Z,68.70
2022-07-25T04:47:47.412Z,69.53
2022-07-25T04:50:15.461Z,67.48
2022-07-25T04:52:42.713Z,65.33
2022-07-25T04:55:11.682Z,63.75
2022-07-25T04:57:38.824Z,56.72
2022-07-25T05:00:09.513Z,56.06
2022-07-25T05:02:37.836Z,54.64
2022-07-25T05:05:06.172Z,53.22
2022-07-25T05:07:33.307Z,52.49
2022-07-25T05:10:00.693Z,50.01
2022-07-25T05:12:29.343Z,50.99
2022-07-25T05:14:56.422Z,48.68
2022-07-25T05:17:25.494Z,47.69
2022-07-25T05:19:52.348Z,48.44
2022-07-25T05:22:19.533Z,46.26
2022-07-25T05:24:46.478Z,46.31
2022-07-25T05:27:13.830Z,44.63
2022-07-25T05:29:42.251Z,42.73
2022-07-25T05:32:09.390Z,42.18
2022-07-25T05:34:36.272Z,40.13
2022-07-25T05:37:03.457Z,40.83
2022-07-25T05:39:30.373Z,42.66
2022-07-25T05:41:57.454Z,41.49
2022-07-25T05:44:24.332Z,40.83
2022-07-25T05:46:52.855Z,40.61
2022-07-25T05:49:19.932Z,43.84
2022-07-25T05:51:46.955Z,43.04
2022-07-25T05:54:13.768Z,42.69
2022-07-25T05:56:41.310Z,41.88
2022-07-25T05:59:08.199Z,41.43
2022-07-25T06:01:35.136Z,41.20
2022-07-25T06:04:07.000Z,40.39
2022-07-25T06:06:34.128Z,38.90
2022-07-25T06:09:01.006Z,38.24
2022-07-25T06:11:27.973Z,35.97
2022-07-25T06:13:58.089Z,34.65
2022-07-25T06:16:25.269Z,33.72
2022-07-25T06:18:52.402Z,32.31
2022-07-25T06:21:20.757Z,35.21
2022-07-25T06:23:47.909Z,39.33
2022-07-25T06:26:14.708Z,43.21
2022-07-25T06:28:41.677Z,43.92
2022-07-25T06:31:08.705Z,42.09
2022-07-25T06:33:35.602Z,40.42
2022-07-25T06:36:04.673Z,42.93
2022-07-25T06:38:32.798Z,44.27
2022-07-25T06:40:59.778Z,46.79
2022-07-25T06:43:26.752Z,46.60
2022-07-25T06:45:54.542Z,48.51
2022-07-25T06:48:21.462Z,46.85
2022-07-25T06:50:48.326Z,48.05
2022-07-25T06:53:15.091Z,47.15
2022-07-25T06:55:43.387Z,44.45
2022-07-25T06:58:10.458Z,45.85
2022-07-25T07:00:38.051Z,44.71
2022-07-25T07:03:05.370Z,43.88
2022-07-25T07:05:35.423Z,44.71
2022-07-25T07:08:03.528Z,44.80
2022-07-25T07:10:31.292Z,44.33
2022-07-25T07:13:11.358Z,44.72
2022-07-25T07:15:39.730Z,46.24
2022-07-25T07:18:07.371Z,45.93
2022-07-25T07:20:34.565Z,44.62
2022-07-25T07:23:01.589Z,43.68
2022-07-25T07:25:28.646Z,45.18
2022-07-25T07:27:56.372Z,45.44
2022-07-25T07:30:37.642Z,43.39
2022-07-25T07:33:11.665Z,41.33
2022-07-25T07:35:38.578Z,41.19
2022-07-25T07:38:06.062Z,44.61
2022-07-25T07:40:32.883Z,45.47
2022-07-25T07:42:59.836Z,44.70
2022-07-25T07:45:28.547Z,46.60
2022-07-25T07:47:56.714Z,47.91
2022-07-25T07:50:27.061Z,48.34
2022-07-25T07:52:55.937Z,48.37
2022-07-25T07:55:24.629Z,48.35
2022-07-25T07:57:52.035Z,47.56
2022-07-25T08:00:19.866Z,48.71
2022-07-25T08:02:51.709Z,47.99
2022-07-25T08:05:23.665Z,46.88
2022-07-25T08:07:52.340Z,46.14
2022-07-25T08:10:21.768Z,46.83
2022-07-25T08:12:50.389Z,45.43
2022-07-25T08:15:19.083Z,43.10
2022-07-25T08:17:47.918Z,45.36
2022-07-25T08:20:37.024Z,44.96
2022-07-25T08:23:02.259Z,45.16
2022-07-25T08:25:29.730Z,45.67
2022-07-25T08:27:56.708Z,45.59
2022-07-25T08:30:23.836Z,44.42
2022-07-25T08:32:55.095Z,43.86
2022-07-25T08:35:23.745Z,41.26
2022-07-25T08:37:51.635Z,40.17
2022-07-25T08:40:21.672Z,41.92
2022-07-25T08:42:49.715Z,41.60
2022-07-25T08:45:19.255Z,42.31
2022-07-25T08:47:47.923Z,41.14
2022-07-25T08:50:18.861Z,41.47
2022-07-25T08:52:48.037Z,39.20
2022-07-25T08:55:17.919Z,39.39
2022-07-25T08:57:46.778Z,39.00
2022-07-25T09:00:17.929Z,37.53
2022-07-25T09:02:53.303Z,38.48
2022-07-25T09:05:23.919Z,37.49
2022-07-25T09:07:52.770Z,36.68
2022-07-25T09:10:23.258Z,35.89
2022-07-25T09:12:55.969Z,35.66
2022-07-25T09:15:25.639Z,35.36
2022-07-25T09:17:54.356Z,35.00
2022-07-25T09:20:23.625Z,34.96
2022-07-25T09:22:51.260Z,35.26
2022-07-25T09:25:28.087Z,34.59
2022-07-25T09:27:55.166Z,34.59
2022-07-25T09:30:22.762Z,34.49
2022-07-25T09:32:59.678Z,34.43
2022-07-25T09:35:31.979Z,34.23
2022-07-25T09:38:16.976Z,33.88
2022-07-25T09:40:55.837Z,33.40
2022-07-25T09:43:23.712Z,33.05
2022-07-25T09:45:52.069Z,32.47
2022-07-25T09:48:19.983Z,32.82
2022-07-25T09:50:49.359Z,33.45
2022-07-25T09:53:17.563Z,31.80
2022-07-25T09:55:45.291Z,32.08
2022-07-25T09:58:13.678Z,32.05
2022-07-25T10:00:42.437Z,32.28
2022-07-25T10:03:24.128Z,32.35
2022-07-25T10:06:12.951Z,31.12
2022-07-25T10:08:41.721Z,30.32
2022-07-25T10:11:25.235Z,30.31
2022-07-25T10:13:54.754Z,30.64
2022-07-25T10:16:27.550Z,29.88
2022-07-25T10:18:59.727Z,29.46
2022-07-25T10:21:28.992Z,29.44
2022-07-25T10:24:02.566Z,29.10
2022-07-25T10:26:31.229Z,29.58
2022-07-25T10:28:59.759Z,29.95
2022-07-25T10:31:36.574Z,29.52
2022-07-25T10:34:07.507Z,29.76
2022-07-25T10:36:46.426Z,29.13
2022-07-25T10:39:15.808Z,28.69
2022-07-25T10:41:51.157Z,27.55
2022-07-25T10:44:18.314Z,27.48
2022-07-25T10:46:46.131Z,27.53
2022-07-25T10:49:29.121Z,27.02
2022-07-25T10:52:02.015Z,26.79
2022-07-25T10:54:34.870Z,26.44
2022-07-25T10:57:03.059Z,26.07
2022-07-25T10:59:34.126Z,26.24
2022-07-25T11:02:02.333Z,25.45
2022-07-25T11:04:30.372Z,24.78
2022-07-25T11:07:07.951Z,25.38
2022-07-25T11:09:35.075Z,25.78
2022-07-25T11:12:02.058Z,24.93
2022-07-25T11:14:33.779Z,24.46
2022-07-25T11:17:13.719Z,24.06
2022-07-25T11:19:42.216Z,23.46
2022-07-25T11:22:11.044Z,24.19
2022-07-25T11:24:40.957Z,24.17
2022-07-25T11:27:12.170Z,24.21
2022-07-25T11:29:40.622Z,23.47
2022-07-25T11:32:10.499Z,23.32
2022-07-25T11:34:41.135Z,23.82
2022-07-25T11:37:13.131Z,23.72
2022-07-25T11:39:45.281Z,24.72
2022-07-25T11:42:15.317Z,24.36
2022-07-25T11:44:47.891Z,24.83
2022-07-25T11:47:28.132Z,25.26
2022-07-25T11:49:57.450Z,26.16
2022-07-25T11:52:30.674Z,26.14
2022-07-25T11:55:00.426Z,26.23
2022-07-25T11:57:32.862Z,25.40
2022-07-25T12:00:01.084Z,24.56
2022-07-25T12:02:30.092Z,25.47
2022-07-25T12:04:59.772Z,25.77
2022-07-25T12:07:47.416Z,26.39
2022-07-25T12:10:17.783Z,27.26
2022-07-25T12:12:52.001Z,27.12
2022-07-25T12:15:22.580Z,26.81
2022-07-25T12:17:51.321Z,27.90
2022-07-25T12:20:21.678Z,28.79
2022-07-25T12:22:52.831Z,28.17
2022-07-25T12:25:20.474Z,28.71
2022-07-25T12:27:48.483Z,28.73
2022-07-25T12:30:19.949Z,28.14
2022-07-25T12:32:47.469Z,29.35
2022-07-25T12:35:15.129Z,29.32
2022-07-25T12:37:42.563Z,29.57
2022-07-25T12:40:13.699Z,30.11
2022-07-25T12:42:40.992Z,29.70
2022-07-25T12:45:10.011Z,30.19
2022-07-25T12:47:37.532Z,30.58
2022-07-25T12:50:06.465Z,30.39
2022-07-25T12:52:33.975Z,30.01
2022-07-25T12:55:20.821Z,29.96
2022-07-25T12:57:48.480Z,29.83
2022-07-25T13:00:19.541Z,30.28
2022-07-25T13:03:23.781Z,29.93
2022-07-25T13:05:56.603Z,30.49
2022-07-25T13:08:49.565Z,30.12
2022-07-25T13:11:18.200Z,29.73
2022-07-25T13:13:45.018Z,29.62
2022-07-25T13:16:11.969Z,30.58
2022-07-25T13:18:39.157Z,30.99
2022-07-25T13:21:07.081Z,31.24
2022-07-25T13:23:34.546Z,31.07
2022-07-25T13:26:01.647Z,31.60
2022-07-25T13:28:30.335Z,31.39
2022-07-25T13:30:57.280Z,31.70
2022-07-25T13:33:24.477Z,32.05
2022-07-25T13:35:51.878Z,31.64
2022-07-25T13:38:19.552Z,31.82
2022-07-25T13:40:47.857Z,31.99
2022-07-25T13:44:06.469Z,32.77
2022-07-25T13:46:36.177Z,32.17
2022-07-25T13:49:07.271Z,31.98
2022-07-25T13:51:34.557Z,32.86
2022-07-25T13:54:03.019Z,33.04
2022-07-25T13:56:31.797Z,33.09
2022-07-25T13:59:02.318Z,33.27
2022-07-25T14:01:29.436Z,32.95
2022-07-25T14:03:56.957Z,33.67
2022-07-25T14:06:23.963Z,33.71
2022-07-25T14:08:50.968Z,34.27
2022-07-25T14:11:17.941Z,34.64
2022-07-25T14:13:45.503Z,34.70
2022-07-25T14:16:14.250Z,34.35
2022-07-25T14:18:41.573Z,34.71
2022-07-25T14:21:08.416Z,34.78
2022-07-25T14:23:35.461Z,35.10
2022-07-25T14:26:02.286Z,34.97
2022-07-25T14:28:30.163Z,34.46
2022-07-25T14:30:57.042Z,33.75
2022-07-25T14:33:25.390Z,33.86
2022-07-25T14:35:52.218Z,32.97
2022-07-25T14:38:19.193Z,32.93
2022-07-25T14:40:46.387Z,32.87
2022-07-25T14:43:13.219Z,32.70
2022-07-25T14:45:41.428Z,33.14
2022-07-25T14:48:08.395Z,32.66
2022-07-25T14:50:36.823Z,33.74
2022-07-25T14:53:04.046Z,33.29
2022-07-25T14:55:30.971Z,33.70
2022-07-25T14:57:58.036Z,33.63
2022-07-25T15:00:29.469Z,34.05
2022-07-25T15:02:57.407Z,34.21
2022-07-25T15:05:24.452Z,34.86
2022-07-25T15:07:52.957Z,35.44
2022-07-25T15:10:20.847Z,35.73
2022-07-25T15:12:51.485Z,36.28
2022-07-25T15:15:25.054Z,42.27
2022-07-25T15:17:52.148Z,46.22
2022-07-25T15:20:19.474Z,46.81
2022-07-25T15:22:46.300Z,46.52
2022-07-25T15:25:57.978Z,46.88
2022-07-25T15:28:01.682Z,46.12
2022-07-25T15:30:29.522Z,46.24
2022-07-25T15:32:59.854Z,45.94
2022-07-25T15:35:27.812Z,46.79
2022-07-25T15:37:54.879Z,46.72
2022-07-25T15:40:23.251Z,47.55
2022-07-25T15:42:50.202Z,47.10
2022-07-25T15:45:32.507Z,47.74
2022-07-25T15:48:00.827Z,48.42
2022-07-25T15:50:27.684Z,49.25
2022-07-25T15:52:54.979Z,49.56
2022-07-25T15:55:23.259Z,49.66
2022-07-25T15:57:51.746Z,50.16
2022-07-25T16:00:19.595Z,50.29
2022-07-25T16:02:46.576Z,50.67
2022-07-25T16:05:14.100Z,49.45
2022-07-25T16:07:41.179Z,49.04
2022-07-25T16:10:09.684Z,49.51
2022-07-25T16:12:39.363Z,49.35
2022-07-25T16:15:08.245Z,48.89
2022-07-25T16:17:37.229Z,47.45
2022-07-25T16:20:05.418Z,45.94
2022-07-25T16:22:32.886Z,45.28
2022-07-25T16:24:59.899Z,45.07
2022-07-25T16:27:27.471Z,44.89
2022-07-25T16:29:56.554Z,42.68
2022-07-25T16:32:23.508Z,43.18
2022-07-25T16:34:50.568Z,43.01
2022-07-25T16:37:17.528Z,43.63
2022-07-25T16:39:44.372Z,42.97
2022-07-25T16:42:11.815Z,43.28
2022-07-25T16:44:38.676Z,42.79
2022-07-25T16:47:08.114Z,41.68
2022-07-25T16:49:35.134Z,42.63
2022-07-25T16:52:02.031Z,42.71
2022-07-25T16:54:29.664Z,42.31
2022-07-25T16:56:59.638Z,42.03
2022-07-25T16:59:27.518Z,42.58
2022-07-25T17:01:54.371Z,41.96
2022-07-25T17:04:22.793Z,42.13
2022-07-25T17:06:49.836Z,42.45
2022-07-25T17:09:16.852Z,42.38
2022-07-25T17:11:43.693Z,42.18
2022-07-25T17:14:10.924Z,42.84
2022-07-25T17:16:39.373Z,43.10
2022-07-25T17:19:06.611Z,43.29
2022-07-25T17:21:34.999Z,43.65
2022-07-25T17:24:01.982Z,43.61
2022-07-25T17:26:29.451Z,44.50
2022-07-25T17:28:56.423Z,44.82
2022-07-25T17:31:23.328Z,45.26
2022-07-25T17:33:50.547Z,45.00
2022-07-25T17:36:17.435Z,45.33
2022-07-25T17:38:46.175Z,45.78
2022-07-25T17:41:13.037Z,45.94
2022-07-25T17:43:40.012Z,45.65
2022-07-25T17:46:06.969Z,45.54
2022-07-25T17:48:33.921Z,44.91
2022-07-25T17:51:00.795Z,45.02
2022-07-25T17:53:27.689Z,45.26
2022-07-25T17:55:56.406Z,44.24
2022-07-25T17:58:23.678Z,43.44
2022-07-25T18:00:50.543Z,42.37
2022-07-25T18:03:17.634Z,42.73
2022-07-25T18:05:44.562Z,42.93
2022-07-25T18:08:11.694Z,42.20
2022-07-25T18:10:38.778Z,42.22
2022-07-25T18:13:07.265Z,42.52
2022-07-25T18:15:34.745Z,43.18
2022-07-25T18:18:02.100Z,42.89
2022-07-25T18:20:29.067Z,43.22
2022-07-25T18:22:56.002Z,43.09
2022-07-25T18:25:23.051Z,43.76
2022-07-25T18:27:50.167Z,43.92
2022-07-25T18:30:18.423Z,43.96
2022-07-25T18:32:45.234Z,43.31
2022-07-25T18:35:13.701Z,43.38
2022-07-25T18:37:41.079Z,43.10
2022-07-25T18:40:10.088Z,43.48
2022-07-25T18:42:37.648Z,43.76
2022-07-25T18:45:06.355Z,43.93
2022-07-25T18:47:35.143Z,44.25
2022-07-25T18:50:03.468Z,44.17
2022-07-25T18:52:30.563Z,43.61
2022-07-25T18:54:57.653Z,44.10
2022-07-25T18:57:24.636Z,43.83
2022-07-25T18:59:51.595Z,43.67
2022-07-25T19:02:18.663Z,43.77
2022-07-25T19:04:47.194Z,43.92
2022-07-25T19:07:14.439Z,44.09
2022-07-25T19:09:41.268Z,43.95
2022-07-25T19:12:09.228Z,44.75
2022-07-25T19:14:36.122Z,44.13
2022-07-25T19:17:04.268Z,44.17
2022-07-25T19:19:31.313Z,44.34
2022-07-25T19:21:59.539Z,44.30
2022-07-25T19:24:26.335Z,44.61
2022-07-25T19:26:53.308Z,44.45
2022-07-25T19:29:20.902Z,44.75
2022-07-25T19:31:47.746Z,44.64
2022-07-25T19:34:15.128Z,44.61
2022-07-25T19:36:42.074Z,45.05
2022-07-25T19:39:10.413Z,45.21
2022-07-25T19:41:37.361Z,45.02
2022-07-25T19:44:05.433Z,45.32
2022-07-25T19:46:33.281Z,45.60
2022-07-25T19:49:01.686Z,45.54
2022-07-25T19:51:28.635Z,45.50
2022-07-25T19:53:55.677Z,46.07
2022-07-25T19:56:28.672Z,46.25
2022-07-25T19:58:55.753Z,46.12
2022-07-25T20:01:22.870Z,46.16
2022-07-25T20:03:50.181Z,45.95
2022-07-25T20:06:17.988Z,46.04
2022-07-25T20:08:44.840Z,45.75
2022-07-25T20:11:12.542Z,45.74
2022-07-25T20:13:41.235Z,45.63
2022-07-25T20:16:08.686Z,46.07
2022-07-25T20:18:36.357Z,46.61
2022-07-25T20:21:04.404Z,46.12
2022-07-25T20:23:32.077Z,45.95
2022-07-25T20:25:59.385Z,45.89
2022-07-25T20:28:26.705Z,46.04
2022-07-25T20:30:56.082Z,46.32
2022-07-25T20:33:24.132Z,45.88
2022-07-25T20:35:51.383Z,46.54
2022-07-25T20:38:18.635Z,46.60
2022-07-25T20:40:49.657Z,46.27
2022-07-25T20:43:17.336Z,46.94
2022-07-25T20:45:44.910Z,47.48
2022-07-25T20:48:14.449Z,47.69
2022-07-25T20:50:42.397Z,48.13
2022-07-25T20:53:10.005Z,47.55
2022-07-25T20:55:39.955Z,48.35
2022-07-25T20:58:07.142Z,47.19
2022-07-25T21:00:34.626Z,47.65
2022-07-25T21:03:02.382Z,48.85
2022-07-25T21:05:37.831Z,49.36
2022-07-25T21:08:09.543Z,49.37
2022-07-25T21:10:37.377Z,50.47
2022-07-25T21:13:10.523Z,49.60
2022-07-25T21:15:46.210Z,49.71
2022-07-25T21:18:18.332Z,49.61
2022-07-25T21:20:49.955Z,49.33
2022-07-25T21:23:19.854Z,49.64
2022-07-25T21:25:47.067Z,49.98
2022-07-25T21:28:14.039Z,49.88
2022-07-25T21:30:42.297Z,50.49
2022-07-25T21:33:14.279Z,50.58
2022-07-25T21:35:49.320Z,50.16
2022-07-25T21:38:27.455Z,50.58
2022-07-25T21:40:55.766Z,50.94
2022-07-25T21:43:22.634Z,51.76
2022-07-25T21:45:50.245Z,50.80
2022-07-25T21:48:22.010Z,51.37
2022-07-25T21:50:50.448Z,51.00
2022-07-25T21:53:17.987Z,50.63
2022-07-25T21:55:46.557Z,50.60
2022-07-25T21:58:13.872Z,50.97
2022-07-25T22:00:45.295Z,51.52
2022-07-25T22:03:12.904Z,51.02
2022-07-25T22:05:39.769Z,51.49
2022-07-25T22:08:06.968Z,51.25
2022-07-25T22:10:36.920Z,51.04
2022-07-25T22:13:05.333Z,50.96
2022-07-25T22:15:32.565Z,52.16
2022-07-25T22:17:59.479Z,51.61
2022-07-25T22:20:26.700Z,51.21
2022-07-25T22:22:54.065Z,51.59
2022-07-25T22:25:21.024Z,51.31
2022-07-25T22:27:48.212Z,52.65
2022-07-25T22:30:19.974Z,51.60
2022-07-25T22:32:48.028Z,51.68
2022-07-25T22:35:15.034Z,52.23
2022-07-25T22:37:42.524Z,52.22
2022-07-25T22:40:11.006Z,52.45
2022-07-25T22:42:37.931Z,53.42
2022-07-25T22:45:09.485Z,53.11
2022-07-25T22:47:39.618Z,53.29
2022-07-25T22:50:09.642Z,54.36
2022-07-25T22:52:36.717Z,54.45
2022-07-25T22:55:04.516Z,55.09
2022-07-25T22:57:37.256Z,55.75
2022-07-25T23:00:08.532Z,56.70
2022-07-25T23:02:37.017Z,55.75
2022-07-25T23:05:05.277Z,55.41
2022-07-25T23:07:32.635Z,55.99
2022-07-25T23:10:01.389Z,54.51
2022-07-25T23:12:28.382Z,56.64
2022-07-25T23:14:55.393Z,58.47
2022-07-25T23:17:22.379Z,58.21
2022-07-25T23:19:54.996Z,58.97
2022-07-25T23:22:52.382Z,58.96
2022-07-25T23:25:29.019Z,63.45
2022-07-25T23:27:56.074Z,64.62
2022-07-25T23:30:23.282Z,66.05
2022-07-25T23:32:50.458Z,66.59
2022-07-25T23:35:43.920Z,67.95
2022-07-25T23:38:20.679Z,66.28
2022-07-25T23:40:47.711Z,68.04
2022-07-25T23:43:15.177Z,67.67
2022-07-25T23:45:57.948Z,68.30
2022-07-25T23:48:24.950Z,65.96
2022-07-25T23:50:53.366Z,64.71
2022-07-25T23:53:20.322Z,64.76
2022-07-25T23:55:57.094Z,64.11
2022-07-25T23:58:24.361Z,65.83
